sensor_id;sensor_type;location;lat;lon;timestamp;pressure;altitude;pressure_sealevel;temperature;humidity
69402;BME280;56589;51.992;5.924;2024-02-23T00:01:53;98122.94;;;3.90;91.65
69402;BME280;56589;51.992;5.924;2024-02-23T00:04:22;98119.38;;;3.91;91.46
69402;BME280;56589;51.992;5.924;2024-02-23T00:06:48;98127.06;;;3.92;91.75
69402;BME280;56589;51.992;5.924;2024-02-23T00:09:13;98130.47;;;3.93;91.79
69402;BME280;56589;51.992;5.924;2024-02-23T00:11:39;98119.28;;;3.92;91.75
69402;BME280;56589;51.992;5.924;2024-02-23T00:14:05;98117.50;;;3.93;90.99
69402;BME280;56589;51.992;5.924;2024-02-23T00:16:37;98127.88;;;3.93;90.67
69402;BME280;56589;51.992;5.924;2024-02-23T00:19:04;98139.78;;;3.95;91.00
69402;BME280;56589;51.992;5.924;2024-02-23T00:21:32;98151.72;;;3.98;90.98
69402;BME280;56589;51.992;5.924;2024-02-23T00:23:58;98150.75;;;3.99;91.10
69402;BME280;56589;51.992;5.924;2024-02-23T00:26:23;98162.78;;;4.00;91.52
69402;BME280;56589;51.992;5.924;2024-02-23T00:28:49;98167.84;;;4.01;91.48
69402;BME280;56589;51.992;5.924;2024-02-23T00:31:15;98158.44;;;4.00;91.72
69402;BME280;56589;51.992;5.924;2024-02-23T00:33:41;98166.09;;;4.02;91.55
69402;BME280;56589;51.992;5.924;2024-02-23T00:36:07;98172.91;;;4.03;91.48
69402;BME280;56589;51.992;5.924;2024-02-23T00:38:35;98176.13;;;4.06;91.61
69402;BME280;56589;51.992;5.924;2024-02-23T00:41:01;98175.88;;;4.09;91.78
69402;BME280;56589;51.992;5.924;2024-02-23T00:43:27;98187.91;;;4.10;91.50
69402;BME280;56589;51.992;5.924;2024-02-23T00:45:53;98188.59;;;4.12;91.71
69402;BME280;56589;51.992;5.924;2024-02-23T00:48:19;98198.03;;;4.13;91.53
69402;BME280;56589;51.992;5.924;2024-02-23T00:50:45;98192.84;;;4.13;91.57
69402;BME280;56589;51.992;5.924;2024-02-23T00:53:10;98205.97;;;4.12;91.21
69402;BME280;56589;51.992;5.924;2024-02-23T00:55:40;98219.91;;;4.11;91.24
69402;BME280;56589;51.992;5.924;2024-02-23T00:58:06;98213.06;;;4.10;91.32
69402;BME280;56589;51.992;5.924;2024-02-23T01:00:32;98214.22;;;4.06;91.09
69402;BME280;56589;51.992;5.924;2024-02-23T01:02:57;98216.84;;;3.95;90.30
69402;BME280;56589;51.992;5.924;2024-02-23T01:05:23;98216.97;;;3.82;90.62
69402;BME280;56589;51.992;5.924;2024-02-23T01:07:49;98218.28;;;3.76;90.77
69402;BME280;56589;51.992;5.924;2024-02-23T01:10:15;98219.22;;;3.75;91.25
69402;BME280;56589;51.992;5.924;2024-02-23T01:12:43;98222.41;;;3.79;91.55
69402;BME280;56589;51.992;5.924;2024-02-23T01:15:09;98230.66;;;3.84;91.88
69402;BME280;56589;51.992;5.924;2024-02-23T01:17:35;98238.78;;;3.91;91.85
69402;BME280;56589;51.992;5.924;2024-02-23T01:20:01;98246.34;;;3.94;92.02
69402;BME280;56589;51.992;5.924;2024-02-23T01:22:27;98242.56;;;3.98;92.20
69402;BME280;56589;51.992;5.924;2024-02-23T01:24:53;98236.31;;;4.00;91.97
69402;BME280;56589;51.992;5.924;2024-02-23T01:27:19;98245.63;;;4.03;92.46
69402;BME280;56589;51.992;5.924;2024-02-23T01:29:48;98240.06;;;4.07;92.60
69402;BME280;56589;51.992;5.924;2024-02-23T01:32:14;98250.09;;;4.12;92.06
69402;BME280;56589;51.992;5.924;2024-02-23T01:34:40;98239.59;;;4.13;92.08
69402;BME280;56589;51.992;5.924;2024-02-23T01:37:05;98251.53;;;4.16;92.18
69402;BME280;56589;51.992;5.924;2024-02-23T01:39:31;98253.03;;;4.19;91.99
69402;BME280;56589;51.992;5.924;2024-02-23T01:41:57;98261.66;;;4.19;91.85
69402;BME280;56589;51.992;5.924;2024-02-23T01:44:23;98245.25;;;4.19;92.11
69402;BME280;56589;51.992;5.924;2024-02-23T01:46:51;98253.19;;;4.17;91.81
69402;BME280;56589;51.992;5.924;2024-02-23T01:49:17;98257.63;;;4.15;91.75
69402;BME280;56589;51.992;5.924;2024-02-23T01:51:45;98261.19;;;4.14;91.32
69402;BME280;56589;51.992;5.924;2024-02-23T01:54:11;98265.69;;;4.12;91.44
69402;BME280;56589;51.992;5.924;2024-02-23T01:56:37;98274.66;;;4.08;91.26
69402;BME280;56589;51.992;5.924;2024-02-23T01:59:03;98272.31;;;4.05;91.65
69402;BME280;56589;51.992;5.924;2024-02-23T02:01:30;98288.94;;;4.02;91.30
69402;BME280;56589;51.992;5.924;2024-02-23T02:04:00;98280.56;;;3.99;91.64
69402;BME280;56589;51.992;5.924;2024-02-23T02:06:26;98290.22;;;3.97;91.50
69402;BME280;56589;51.992;5.924;2024-02-23T02:08:53;98284.34;;;3.95;91.14
69402;BME280;56589;51.992;5.924;2024-02-23T02:11:20;98290.59;;;3.92;91.29
69402;BME280;56589;51.992;5.924;2024-02-23T02:13:45;98289.88;;;3.90;91.48
69402;BME280;56589;51.992;5.924;2024-02-23T02:16:11;98296.00;;;3.89;91.35
69402;BME280;56589;51.992;5.924;2024-02-23T02:18:37;98294.38;;;3.88;90.98
69402;BME280;56589;51.992;5.924;2024-02-23T02:21:06;98295.53;;;3.84;91.21
69402;BME280;56589;51.992;5.924;2024-02-23T02:23:32;98299.19;;;3.81;91.01
69402;BME280;56589;51.992;5.924;2024-02-23T02:25:58;98286.44;;;3.78;90.91
69402;BME280;56589;51.992;5.924;2024-02-23T02:28:25;98303.91;;;3.76;90.97
69402;BME280;56589;51.992;5.924;2024-02-23T02:30:52;98302.47;;;3.72;91.00
69402;BME280;56589;51.992;5.924;2024-02-23T02:33:18;98300.94;;;3.70;90.82
69402;BME280;56589;51.992;5.924;2024-02-23T02:35:44;98308.84;;;3.68;90.94
69402;BME280;56589;51.992;5.924;2024-02-23T02:38:13;98309.19;;;3.64;91.00
69402;BME280;56589;51.992;5.924;2024-02-23T02:40:38;98304.00;;;3.64;90.84
69402;BME280;56589;51.992;5.924;2024-02-23T02:43:05;98310.03;;;3.64;91.08
69402;BME280;56589;51.992;5.924;2024-02-23T02:45:32;98320.19;;;3.67;91.01
69402;BME280;56589;51.992;5.924;2024-02-23T02:47:59;98314.75;;;3.70;91.03
69402;BME280;56589;51.992;5.924;2024-02-23T02:50:28;98312.97;;;3.71;91.01
69402;BME280;56589;51.992;5.924;2024-02-23T02:52:54;98312.84;;;3.72;91.37
69402;BME280;56589;51.992;5.924;2024-02-23T02:55:22;98317.97;;;3.74;91.23
69402;BME280;56589;51.992;5.924;2024-02-23T02:57:48;98316.88;;;3.76;91.16
69402;BME280;56589;51.992;5.924;2024-02-23T03:00:14;98311.94;;;3.73;90.49
69402;BME280;56589;51.992;5.924;2024-02-23T03:02:40;98312.75;;;3.74;90.52
69402;BME280;56589;51.992;5.924;2024-02-23T03:05:08;98314.63;;;3.72;90.78
69402;BME280;56589;51.992;5.924;2024-02-23T03:07:34;98322.31;;;3.73;90.48
69402;BME280;56589;51.992;5.924;2024-02-23T03:09:59;98317.00;;;3.75;90.62
69402;BME280;56589;51.992;5.924;2024-02-23T03:12:28;98327.13;;;3.78;90.94
69402;BME280;56589;51.992;5.924;2024-02-23T03:14:54;98333.16;;;3.78;90.25
69402;BME280;56589;51.992;5.924;2024-02-23T03:17:19;98322.91;;;3.77;90.49
69402;BME280;56589;51.992;5.924;2024-02-23T03:19:45;98332.31;;;3.78;89.99
69402;BME280;56589;51.992;5.924;2024-02-23T03:22:11;98331.75;;;3.74;90.14
69402;BME280;56589;51.992;5.924;2024-02-23T03:24:37;98330.81;;;3.75;89.81
69402;BME280;56589;51.992;5.924;2024-02-23T03:27:03;98333.41;;;3.75;90.21
69402;BME280;56589;51.992;5.924;2024-02-23T03:29:31;98341.06;;;3.77;90.07
69402;BME280;56589;51.992;5.924;2024-02-23T03:31:57;98335.88;;;3.77;90.22
69402;BME280;56589;51.992;5.924;2024-02-23T03:34:23;98335.66;;;3.80;89.80
69402;BME280;56589;51.992;5.924;2024-02-23T03:36:49;98347.81;;;3.79;89.72
69402;BME280;56589;51.992;5.924;2024-02-23T03:39:15;98353.00;;;3.79;90.03
69402;BME280;56589;51.992;5.924;2024-02-23T03:41:41;98364.09;;;3.81;89.83
69402;BME280;56589;51.992;5.924;2024-02-23T03:44:07;98355.13;;;3.85;90.08
69402;BME280;56589;51.992;5.924;2024-02-23T03:46:35;98361.97;;;3.87;89.44
69402;BME280;56589;51.992;5.924;2024-02-23T03:49:01;98366.09;;;3.89;89.62
69402;BME280;56589;51.992;5.924;2024-02-23T03:51:27;98358.09;;;3.92;90.03
69402;BME280;56589;51.992;5.924;2024-02-23T03:53:53;98358.78;;;3.94;89.81
69402;BME280;56589;51.992;5.924;2024-02-23T03:56:18;98376.84;;;3.96;89.31
69402;BME280;56589;51.992;5.924;2024-02-23T03:58:44;98354.53;;;3.93;89.47
69402;BME280;56589;51.992;5.924;2024-02-23T04:01:10;98365.97;;;3.91;88.99
69402;BME280;56589;51.992;5.924;2024-02-23T04:03:39;98378.25;;;3.89;89.42
69402;BME280;56589;51.992;5.924;2024-02-23T04:06:04;98369.88;;;3.85;89.18
69402;BME280;56589;51.992;5.924;2024-02-23T04:08:30;98381.31;;;3.82;89.22
69402;BME280;56589;51.992;5.924;2024-02-23T04:10:56;98388.50;;;3.79;89.24
69402;BME280;56589;51.992;5.924;2024-02-23T04:13:22;98392.13;;;3.76;89.13
69402;BME280;56589;51.992;5.924;2024-02-23T04:15:51;98399.81;;;3.78;89.59
69402;BME280;56589;51.992;5.924;2024-02-23T04:18:16;98393.69;;;3.79;89.56
69402;BME280;56589;51.992;5.924;2024-02-23T04:20:45;98391.69;;;3.82;89.46
69402;BME280;56589;51.992;5.924;2024-02-23T04:23:11;98393.59;;;3.80;89.16
69402;BME280;56589;51.992;5.924;2024-02-23T04:25:38;98392.84;;;3.78;88.98
69402;BME280;56589;51.992;5.924;2024-02-23T04:28:04;98398.50;;;3.72;88.89
69402;BME280;56589;51.992;5.924;2024-02-23T04:30:30;98401.31;;;3.69;89.01
69402;BME280;56589;51.992;5.924;2024-02-23T04:32:56;98404.03;;;3.68;89.09
69402;BME280;56589;51.992;5.924;2024-02-23T04:35:22;98410.19;;;3.67;89.28
69402;BME280;56589;51.992;5.924;2024-02-23T04:37:50;98411.91;;;3.66;89.14
69402;BME280;56589;51.992;5.924;2024-02-23T04:40:16;98411.81;;;3.68;89.46
69402;BME280;56589;51.992;5.924;2024-02-23T04:42:43;98416.91;;;3.69;89.52
69402;BME280;56589;51.992;5.924;2024-02-23T04:45:11;98420.09;;;3.73;89.41
69402;BME280;56589;51.992;5.924;2024-02-23T04:47:37;98420.69;;;3.76;89.56
69402;BME280;56589;51.992;5.924;2024-02-23T04:50:04;98424.94;;;3.77;89.23
69402;BME280;56589;51.992;5.924;2024-02-23T04:52:31;98425.75;;;3.78;89.18
69402;BME280;56589;51.992;5.924;2024-02-23T04:54:59;98433.47;;;3.79;88.92
69402;BME280;56589;51.992;5.924;2024-02-23T04:57:27;98428.16;;;3.81;89.08
69402;BME280;56589;51.992;5.924;2024-02-23T04:59:53;98427.06;;;3.83;89.22
69402;BME280;56589;51.992;5.924;2024-02-23T05:02:19;98430.41;;;3.85;89.11
69402;BME280;56589;51.992;5.924;2024-02-23T05:04:45;98440.66;;;3.87;89.47
69402;BME280;56589;51.992;5.924;2024-02-23T05:07:10;98441.50;;;3.88;89.48
69402;BME280;56589;51.992;5.924;2024-02-23T05:09:36;98440.44;;;3.90;89.01
69402;BME280;56589;51.992;5.924;2024-02-23T05:12:05;98443.75;;;3.92;88.98
69402;BME280;56589;51.992;5.924;2024-02-23T05:14:32;98437.38;;;3.96;88.88
69402;BME280;56589;51.992;5.924;2024-02-23T05:16:58;98448.38;;;4.00;89.33
69402;BME280;56589;51.992;5.924;2024-02-23T05:19:24;98440.34;;;4.03;88.81
69402;BME280;56589;51.992;5.924;2024-02-23T05:21:50;98446.25;;;4.05;89.22
69402;BME280;56589;51.992;5.924;2024-02-23T05:24:16;98441.78;;;4.07;88.81
69402;BME280;56589;51.992;5.924;2024-02-23T05:26:41;98440.81;;;4.08;88.45
69402;BME280;56589;51.992;5.924;2024-02-23T05:29:10;98438.84;;;4.11;88.47
69402;BME280;56589;51.992;5.924;2024-02-23T05:31:46;98445.47;;;4.16;88.78
69402;BME280;56589;51.992;5.924;2024-02-23T05:34:14;98436.81;;;4.15;88.26
69402;BME280;56589;51.992;5.924;2024-02-23T05:36:40;98445.09;;;4.20;88.31
69402;BME280;56589;51.992;5.924;2024-02-23T05:39:06;98435.44;;;4.22;88.00
69402;BME280;56589;51.992;5.924;2024-02-23T05:41:31;98435.19;;;4.25;88.17
69402;BME280;56589;51.992;5.924;2024-02-23T05:43:57;98429.06;;;4.26;87.68
69402;BME280;56589;51.992;5.924;2024-02-23T05:46:26;98423.72;;;4.28;87.94
69402;BME280;56589;51.992;5.924;2024-02-23T05:48:52;98424.59;;;4.28;87.56
69402;BME280;56589;51.992;5.924;2024-02-23T05:51:20;98448.53;;;4.32;87.49
69402;BME280;56589;51.992;5.924;2024-02-23T05:53:46;98437.09;;;4.34;87.92
69402;BME280;56589;51.992;5.924;2024-02-23T05:56:12;98446.56;;;4.35;87.14
69402;BME280;56589;51.992;5.924;2024-02-23T05:58:38;98452.44;;;4.37;87.73
69402;BME280;56589;51.992;5.924;2024-02-23T06:01:04;98441.09;;;4.38;87.45
69402;BME280;56589;51.992;5.924;2024-02-23T06:03:32;98446.09;;;4.42;87.37
69402;BME280;56589;51.992;5.924;2024-02-23T06:06:00;98440.06;;;4.41;87.45
69402;BME280;56589;51.992;5.924;2024-02-23T06:08:26;98441.59;;;4.44;87.22
69402;BME280;56589;51.992;5.924;2024-02-23T06:10:53;98434.63;;;4.44;87.12
69402;BME280;56589;51.992;5.924;2024-02-23T06:13:19;98431.91;;;4.46;86.90
69402;BME280;56589;51.992;5.924;2024-02-23T06:15:45;98427.66;;;4.45;86.99
69402;BME280;56589;51.992;5.924;2024-02-23T06:18:11;98432.84;;;4.45;86.51
69402;BME280;56589;51.992;5.924;2024-02-23T06:20:39;98426.81;;;4.44;86.43
69402;BME280;56589;51.992;5.924;2024-02-23T06:23:05;98426.94;;;4.43;86.49
69402;BME280;56589;51.992;5.924;2024-02-23T06:25:31;98426.94;;;4.43;86.41
69402;BME280;56589;51.992;5.924;2024-02-23T06:27:56;98426.25;;;4.41;86.21
69402;BME280;56589;51.992;5.924;2024-02-23T06:30:22;98430.59;;;4.40;86.45
69402;BME280;56589;51.992;5.924;2024-02-23T06:32:48;98432.28;;;4.41;86.72
69402;BME280;56589;51.992;5.924;2024-02-23T06:35:14;98438.28;;;4.42;86.44
69402;BME280;56589;51.992;5.924;2024-02-23T06:37:42;98424.47;;;4.41;86.10
69402;BME280;56589;51.992;5.924;2024-02-23T06:40:09;98434.97;;;4.39;86.45
69402;BME280;56589;51.992;5.924;2024-02-23T06:42:35;98440.16;;;4.39;86.47
69402;BME280;56589;51.992;5.924;2024-02-23T06:45:01;98440.88;;;4.42;86.07
69402;BME280;56589;51.992;5.924;2024-02-23T06:47:27;98436.38;;;4.44;86.10
69402;BME280;56589;51.992;5.924;2024-02-23T06:49:53;98443.13;;;4.46;86.13
69402;BME280;56589;51.992;5.924;2024-02-23T06:52:19;98434.16;;;4.50;86.25
69402;BME280;56589;51.992;5.924;2024-02-23T06:54:47;98436.75;;;4.50;86.08
69402;BME280;56589;51.992;5.924;2024-02-23T06:57:15;98446.91;;;4.53;86.38
69402;BME280;56589;51.992;5.924;2024-02-23T06:59:41;98447.63;;;4.55;86.33
69402;BME280;56589;51.992;5.924;2024-02-23T07:02:06;98436.16;;;4.58;85.86
69402;BME280;56589;51.992;5.924;2024-02-23T07:04:32;98447.28;;;4.60;85.97
69402;BME280;56589;51.992;5.924;2024-02-23T07:06:58;98434.97;;;4.62;85.46
69402;BME280;56589;51.992;5.924;2024-02-23T07:09:24;98440.88;;;4.64;85.26
69402;BME280;56589;51.992;5.924;2024-02-23T07:11:52;98434.75;;;4.65;85.16
69402;BME280;56589;51.992;5.924;2024-02-23T07:14:18;98432.03;;;4.66;85.05
69402;BME280;56589;51.992;5.924;2024-02-23T07:16:46;98438.63;;;4.71;85.18
69402;BME280;56589;51.992;5.924;2024-02-23T07:19:12;98437.44;;;4.75;85.14
69402;BME280;56589;51.992;5.924;2024-02-23T07:21:38;98444.22;;;4.77;84.87
69402;BME280;56589;51.992;5.924;2024-02-23T07:24:04;98433.69;;;4.79;85.01
69402;BME280;56589;51.992;5.924;2024-02-23T07:26:30;98441.22;;;4.82;84.79
69402;BME280;56589;51.992;5.924;2024-02-23T07:28:59;98444.41;;;4.85;85.00
69402;BME280;56589;51.992;5.924;2024-02-23T07:31:25;98446.91;;;4.87;83.70
69402;BME280;56589;51.992;5.924;2024-02-23T07:33:50;98445.00;;;4.89;84.27
69402;BME280;56589;51.992;5.924;2024-02-23T07:36:16;98448.34;;;4.91;84.33
69402;BME280;56589;51.992;5.924;2024-02-23T07:38:43;98451.66;;;4.93;83.29
69402;BME280;56589;51.992;5.924;2024-02-23T07:41:09;98444.66;;;4.93;83.74
69402;BME280;56589;51.992;5.924;2024-02-23T07:43:34;98455.91;;;4.94;83.50
69402;BME280;56589;51.992;5.924;2024-02-23T07:46:03;98453.78;;;4.99;83.90
69402;BME280;56589;51.992;5.924;2024-02-23T07:48:29;98452.81;;;5.00;82.13
69402;BME280;56589;51.992;5.924;2024-02-23T07:50:55;98462.16;;;5.03;83.06
69402;BME280;56589;51.992;5.924;2024-02-23T07:53:21;98454.25;;;5.04;82.70
69402;BME280;56589;51.992;5.924;2024-02-23T07:55:46;98449.63;;;5.08;82.62
69402;BME280;56589;51.992;5.924;2024-02-23T07:58:12;98447.47;;;5.13;82.66
69402;BME280;56589;51.992;5.924;2024-02-23T08:00:38;98442.88;;;5.16;81.91
69402;BME280;56589;51.992;5.924;2024-02-23T08:03:06;98447.00;;;5.19;82.48
69402;BME280;56589;51.992;5.924;2024-02-23T08:05:32;98443.22;;;5.23;82.64
69402;BME280;56589;51.992;5.924;2024-02-23T08:07:58;98445.59;;;5.26;82.17
69402;BME280;56589;51.992;5.924;2024-02-23T08:10:24;98446.16;;;5.30;81.90
69402;BME280;56589;51.992;5.924;2024-02-23T08:12:50;98441.53;;;5.33;81.90
69402;BME280;56589;51.992;5.924;2024-02-23T08:15:16;98449.53;;;5.41;82.02
69402;BME280;56589;51.992;5.924;2024-02-23T08:17:41;98454.13;;;5.49;81.55
69402;BME280;56589;51.992;5.924;2024-02-23T08:20:10;98451.75;;;5.57;81.27
69402;BME280;56589;51.992;5.924;2024-02-23T08:22:36;98447.94;;;5.61;80.87
69402;BME280;56589;51.992;5.924;2024-02-23T08:25:02;98448.66;;;5.63;80.54
69402;BME280;56589;51.992;5.924;2024-02-23T08:27:29;98446.75;;;5.65;80.61
69402;BME280;56589;51.992;5.924;2024-02-23T08:29:55;98443.31;;;5.65;80.82
69402;BME280;56589;51.992;5.924;2024-02-23T08:32:20;98438.09;;;5.65;79.87
69402;BME280;56589;51.992;5.924;2024-02-23T08:34:46;98434.69;;;5.64;79.71
69402;BME280;56589;51.992;5.924;2024-02-23T08:37:15;98438.94;;;5.65;80.21
69402;BME280;56589;51.992;5.924;2024-02-23T08:39:40;98431.94;;;5.66;80.46
69402;BME280;56589;51.992;5.924;2024-02-23T08:42:06;98426.38;;;5.70;79.96
69402;BME280;56589;51.992;5.924;2024-02-23T08:44:32;98417.34;;;5.74;79.89
69402;BME280;56589;51.992;5.924;2024-02-23T08:46:58;98420.53;;;5.78;79.68
69402;BME280;56589;51.992;5.924;2024-02-23T08:49:24;98413.31;;;5.82;79.88
69402;BME280;56589;51.992;5.924;2024-02-23T08:51:50;98412.53;;;5.91;79.93
69402;BME280;56589;51.992;5.924;2024-02-23T08:54:18;98406.31;;;6.03;79.82
69402;BME280;56589;51.992;5.924;2024-02-23T08:56:44;98404.19;;;6.18;79.49
69402;BME280;56589;51.992;5.924;2024-02-23T08:59:10;98395.22;;;6.32;79.35
69402;BME280;56589;51.992;5.924;2024-02-23T09:01:35;98398.13;;;6.38;78.38
69402;BME280;56589;51.992;5.924;2024-02-23T09:04:01;98395.53;;;6.38;78.20
69402;BME280;56589;51.992;5.924;2024-02-23T09:06:27;98389.22;;;6.41;78.09
69402;BME280;56589;51.992;5.924;2024-02-23T09:08:53;98398.94;;;6.39;77.57
69402;BME280;56589;51.992;5.924;2024-02-23T09:11:22;98394.81;;;6.36;77.23
69402;BME280;56589;51.992;5.924;2024-02-23T09:13:48;98400.97;;;6.35;76.92
69402;BME280;56589;51.992;5.924;2024-02-23T09:16:13;98399.59;;;6.31;77.38
69402;BME280;56589;51.992;5.924;2024-02-23T09:18:39;98384.22;;;6.28;77.20
69402;BME280;56589;51.992;5.924;2024-02-23T09:21:05;98392.84;;;6.28;77.65
69402;BME280;56589;51.992;5.924;2024-02-23T09:23:34;98391.91;;;6.30;77.61
69402;BME280;56589;51.992;5.924;2024-02-23T09:26:00;98391.66;;;6.33;77.49
69402;BME280;56589;51.992;5.924;2024-02-23T09:28:29;98399.19;;;6.36;77.42
69402;BME280;56589;51.992;5.924;2024-02-23T09:30:55;98398.38;;;6.35;77.08
69402;BME280;56589;51.992;5.924;2024-02-23T09:33:21;98407.16;;;6.34;76.44
69402;BME280;56589;51.992;5.924;2024-02-23T09:35:47;98398.88;;;6.29;76.90
69402;BME280;56589;51.992;5.924;2024-02-23T09:38:13;98401.06;;;6.24;76.60
69402;BME280;56589;51.992;5.924;2024-02-23T09:40:39;98395.97;;;6.22;76.47
69402;BME280;56589;51.992;5.924;2024-02-23T09:43:07;98406.53;;;6.21;76.95
69402;BME280;56589;51.992;5.924;2024-02-23T09:45:37;98406.69;;;6.19;76.91
69402;BME280;56589;51.992;5.924;2024-02-23T09:48:04;98398.16;;;6.17;76.40
69402;BME280;56589;51.992;5.924;2024-02-23T09:50:32;98412.94;;;6.17;76.73
69402;BME280;56589;51.992;5.924;2024-02-23T09:52:58;98406.78;;;6.18;76.79
69402;BME280;56589;51.992;5.924;2024-02-23T09:55:26;98410.94;;;6.20;76.26
69402;BME280;56589;51.992;5.924;2024-02-23T09:57:55;98423.81;;;6.22;76.77
69402;BME280;56589;51.992;5.924;2024-02-23T10:00:23;98427.56;;;6.29;77.00
69402;BME280;56589;51.992;5.924;2024-02-23T10:02:52;98425.78;;;6.30;76.76
69402;BME280;56589;51.992;5.924;2024-02-23T10:05:19;98423.75;;;6.33;76.78
69402;BME280;56589;51.992;5.924;2024-02-23T10:07:48;98430.09;;;6.40;77.00
69402;BME280;56589;51.992;5.924;2024-02-23T10:10:14;98416.66;;;6.45;76.38
69402;BME280;56589;51.992;5.924;2024-02-23T10:12:39;98423.41;;;6.47;75.99
69402;BME280;56589;51.992;5.924;2024-02-23T10:15:06;98419.81;;;6.48;75.61
69402;BME280;56589;51.992;5.924;2024-02-23T10:17:32;98437.00;;;6.51;76.30
69402;BME280;56589;51.992;5.924;2024-02-23T10:20:01;98440.06;;;6.56;76.94
69402;BME280;56589;51.992;5.924;2024-02-23T10:22:30;98452.13;;;6.57;76.83
69402;BME280;56589;51.992;5.924;2024-02-23T10:24:56;98460.19;;;6.54;77.14
69402;BME280;56589;51.992;5.924;2024-02-23T10:27:21;98454.28;;;6.52;77.48
69402;BME280;56589;51.992;5.924;2024-02-23T10:29:49;98456.47;;;6.47;77.41
69402;BME280;56589;51.992;5.924;2024-02-23T10:32:15;98459.34;;;6.44;77.73
69402;BME280;56589;51.992;5.924;2024-02-23T10:34:47;98458.50;;;6.43;78.05
69402;BME280;56589;51.992;5.924;2024-02-23T10:37:16;98463.72;;;6.43;78.19
69402;BME280;56589;51.992;5.924;2024-02-23T10:39:42;98468.13;;;6.43;78.15
69402;BME280;56589;51.992;5.924;2024-02-23T10:42:09;98483.19;;;6.39;77.97
69402;BME280;56589;51.992;5.924;2024-02-23T10:44:36;98484.38;;;6.35;78.36
69402;BME280;56589;51.992;5.924;2024-02-23T10:47:04;98483.00;;;6.31;78.89
69402;BME280;56589;51.992;5.924;2024-02-23T10:49:31;98488.22;;;6.31;79.10
69402;BME280;56589;51.992;5.924;2024-02-23T10:51:57;98486.97;;;6.35;79.15
69402;BME280;56589;51.992;5.924;2024-02-23T10:54:26;98492.25;;;6.45;79.25
69402;BME280;56589;51.992;5.924;2024-02-23T10:56:52;98486.53;;;6.51;78.62
69402;BME280;56589;51.992;5.924;2024-02-23T10:59:18;98481.78;;;6.56;78.61
69402;BME280;56589;51.992;5.924;2024-02-23T11:01:47;98482.44;;;6.58;78.03
69402;BME280;56589;51.992;5.924;2024-02-23T11:04:15;98482.31;;;6.60;77.39
69402;BME280;56589;51.992;5.924;2024-02-23T11:06:42;98489.44;;;6.58;77.32
69402;BME280;56589;51.992;5.924;2024-02-23T11:09:14;98492.06;;;6.58;77.75
69402;BME280;56589;51.992;5.924;2024-02-23T11:11:51;98491.09;;;6.59;77.75
69402;BME280;56589;51.992;5.924;2024-02-23T11:14:29;98497.97;;;6.60;77.54
69402;BME280;56589;51.992;5.924;2024-02-23T11:16:55;98496.06;;;6.62;77.43
69402;BME280;56589;51.992;5.924;2024-02-23T11:19:32;98494.00;;;6.65;77.60
69402;BME280;56589;51.992;5.924;2024-02-23T11:21:59;98491.41;;;6.65;77.47
69402;BME280;56589;51.992;5.924;2024-02-23T11:24:28;98500.03;;;6.66;77.16
69402;BME280;56589;51.992;5.924;2024-02-23T11:26:59;98494.59;;;6.69;77.22
69402;BME280;56589;51.992;5.924;2024-02-23T11:29:26;98495.13;;;6.72;77.25
69402;BME280;56589;51.992;5.924;2024-02-23T11:31:55;98499.53;;;6.72;77.11
69402;BME280;56589;51.992;5.924;2024-02-23T11:34:22;98505.72;;;6.71;76.85
69402;BME280;56589;51.992;5.924;2024-02-23T11:36:50;98494.91;;;6.75;77.25
69402;BME280;56589;51.992;5.924;2024-02-23T11:39:16;98498.91;;;6.79;77.42
69402;BME280;56589;51.992;5.924;2024-02-23T11:41:43;98502.19;;;6.81;76.87
69402;BME280;56589;51.992;5.924;2024-02-23T11:44:11;98490.94;;;6.81;76.99
69402;BME280;56589;51.992;5.924;2024-02-23T11:46:37;98493.53;;;6.81;77.16
69402;BME280;56589;51.992;5.924;2024-02-23T11:49:03;98504.94;;;6.80;76.51
69402;BME280;56589;51.992;5.924;2024-02-23T11:51:29;98499.44;;;6.83;76.88
69402;BME280;56589;51.992;5.924;2024-02-23T11:53:55;98495.34;;;6.90;77.02
69402;BME280;56589;51.992;5.924;2024-02-23T11:56:22;98499.81;;;6.99;76.76
69402;BME280;56589;51.992;5.924;2024-02-23T11:58:48;98497.75;;;7.03;76.52
69402;BME280;56589;51.992;5.924;2024-02-23T12:01:17;98498.84;;;7.10;76.98
69402;BME280;56589;51.992;5.924;2024-02-23T12:03:42;98499.44;;;7.14;76.87
69402;BME280;56589;51.992;5.924;2024-02-23T12:06:10;98504.25;;;7.18;76.47
69402;BME280;56589;51.992;5.924;2024-02-23T12:08:36;98511.94;;;7.20;75.97
69402;BME280;56589;51.992;5.924;2024-02-23T12:11:03;98504.41;;;7.17;75.63
69402;BME280;56589;51.992;5.924;2024-02-23T12:13:29;98517.84;;;7.12;75.33
69402;BME280;56589;51.992;5.924;2024-02-23T12:15:55;98511.06;;;7.09;76.21
69402;BME280;56589;51.992;5.924;2024-02-23T12:18:24;98513.28;;;7.04;75.68
69402;BME280;56589;51.992;5.924;2024-02-23T12:20:50;98519.72;;;7.00;76.21
69402;BME280;56589;51.992;5.924;2024-02-23T12:23:16;98520.53;;;7.01;76.29
69402;BME280;56589;51.992;5.924;2024-02-23T12:25:52;98513.53;;;7.01;76.26
69402;BME280;56589;51.992;5.924;2024-02-23T12:28:18;98516.66;;;6.95;75.70
69402;BME280;56589;51.992;5.924;2024-02-23T12:30:44;98530.66;;;6.94;75.75
69402;BME280;56589;51.992;5.924;2024-02-23T12:33:10;98526.13;;;6.96;76.02
69402;BME280;56589;51.992;5.924;2024-02-23T12:35:39;98524.94;;;7.00;76.16
69402;BME280;56589;51.992;5.924;2024-02-23T12:38:05;98513.38;;;7.03;76.05
69402;BME280;56589;51.992;5.924;2024-02-23T12:40:31;98527.00;;;7.06;76.42
69402;BME280;56589;51.992;5.924;2024-02-23T12:42:57;98525.66;;;7.12;76.10
69402;BME280;56589;51.992;5.924;2024-02-23T12:45:22;98532.25;;;7.16;75.82
69402;BME280;56589;51.992;5.924;2024-02-23T12:47:48;98529.09;;;7.22;76.28
69402;BME280;56589;51.992;5.924;2024-02-23T12:50:14;98531.75;;;7.32;76.01
69402;BME280;56589;51.992;5.924;2024-02-23T12:52:42;98531.25;;;7.38;75.52
69402;BME280;56589;51.992;5.924;2024-02-23T12:55:08;98529.34;;;7.40;75.20
69402;BME280;56589;51.992;5.924;2024-02-23T12:57:34;98531.69;;;7.43;75.45
69402;BME280;56589;51.992;5.924;2024-02-23T13:00:00;98530.19;;;7.50;75.80
69402;BME280;56589;51.992;5.924;2024-02-23T13:02:26;98533.78;;;7.59;75.59
69402;BME280;56589;51.992;5.924;2024-02-23T13:04:51;98538.47;;;7.65;75.60
69402;BME280;56589;51.992;5.924;2024-02-23T13:07:17;98545.75;;;7.71;75.54